sensor_id;sensor_type;location;lat;lon;timestamp;pressure;altitude;pressure_sealevel;temperature
12007;BMP180;6062;47.294;12.182;2022-12-18T00:01:17;80519.00;;;-1.90
12007;BMP180;6062;47.294;12.182;2022-12-18T00:03:43;80504.00;;;-1.90
12007;BMP180;6062;47.294;12.182;2022-12-18T00:06:09;80506.00;;;-1.90
12007;BMP180;6062;47.294;12.182;2022-12-18T00:08:35;80517.00;;;-1.90
12007;BMP180;6062;47.294;12.182;2022-12-18T00:11:11;80522.00;;;-2.00
12007;BMP180;6062;47.294;12.182;2022-12-18T00:13:37;80513.00;;;-2.00
12007;BMP180;6062;47.294;12.182;2022-12-18T00:16:15;80511.00;;;-2.00
12007;BMP180;6062;47.294;12.182;2022-12-18T00:18:42;80527.00;;;-2.10
12007;BMP180;6062;47.294;12.182;2022-12-18T00:21:10;80509.00;;;-2.10
12007;BMP180;6062;47.294;12.182;2022-12-18T00:23:38;80521.00;;;-2.10
12007;BMP180;6062;47.294;12.182;2022-12-18T00:26:25;80529.00;;;-2.10
12007;BMP180;6062;47.294;12.182;2022-12-18T00:28:52;80530.00;;;-2.10
12007;BMP180;6062;47.294;12.182;2022-12-18T00:31:24;80526.00;;;-2.10
12007;BMP180;6062;47.294;12.182;2022-12-18T00:33:50;80525.00;;;-2.10
12007;BMP180;6062;47.294;12.182;2022-12-18T00:36:19;80524.00;;;-2.10
12007;BMP180;6062;47.294;12.182;2022-12-18T00:38:46;80530.00;;;-2.10
12007;BMP180;6062;47.294;12.182;2022-12-18T00:41:15;80542.00;;;-2.10
12007;BMP180;6062;47.294;12.182;2022-12-18T00:44:06;80538.00;;;-2.10
12007;BMP180;6062;47.294;12.182;2022-12-18T00:46:33;80534.00;;;-2.10
12007;BMP180;6062;47.294;12.182;2022-12-18T00:48:58;80538.00;;;-2.10
12007;BMP180;6062;47.294;12.182;2022-12-18T00:51:25;80541.00;;;-2.10
12007;BMP180;6062;47.294;12.182;2022-12-18T00:53:52;80538.00;;;-2.10
12007;BMP180;6062;47.294;12.182;2022-12-18T00:56:18;80538.00;;;-2.10
12007;BMP180;6062;47.294;12.182;2022-12-18T00:58:43;80542.00;;;-2.10
12007;BMP180;6062;47.294;12.182;2022-12-18T01:01:09;80532.00;;;-2.10
12007;BMP180;6062;47.294;12.182;2022-12-18T01:03:35;80542.00;;;-2.10
12007;BMP180;6062;47.294;12.182;2022-12-18T01:06:07;80543.00;;;-2.10
12007;BMP180;6062;47.294;12.182;2022-12-18T01:08:34;80540.00;;;-2.10
12007;BMP180;6062;47.294;12.182;2022-12-18T01:11:01;80544.00;;;-2.10
12007;BMP180;6062;47.294;12.182;2022-12-18T01:13:27;80543.00;;;-2.10
12007;BMP180;6062;47.294;12.182;2022-12-18T01:15:52;80554.00;;;-2.20
12007;BMP180;6062;47.294;12.182;2022-12-18T01:18:18;80549.00;;;-2.20
12007;BMP180;6062;47.294;12.182;2022-12-18T01:20:43;80552.00;;;-2.20
12007;BMP180;6062;47.294;12.182;2022-12-18T01:23:09;80552.00;;;-2.30
12007;BMP180;6062;47.294;12.182;2022-12-18T01:25:36;80558.00;;;-2.30
12007;BMP180;6062;47.294;12.182;2022-12-18T01:28:02;80554.00;;;-2.30
12007;BMP180;6062;47.294;12.182;2022-12-18T01:30:28;80563.00;;;-2.30
12007;BMP180;6062;47.294;12.182;2022-12-18T01:32:54;80566.00;;;-2.30
12007;BMP180;6062;47.294;12.182;2022-12-18T01:35:20;80574.00;;;-2.30
12007;BMP180;6062;47.294;12.182;2022-12-18T01:37:46;80575.00;;;-2.30
12007;BMP180;6062;47.294;12.182;2022-12-18T01:40:12;80585.00;;;-2.30
12007;BMP180;6062;47.294;12.182;2022-12-18T01:42:37;80585.00;;;-2.30
12007;BMP180;6062;47.294;12.182;2022-12-18T01:45:24;80591.00;;;-2.20
12007;BMP180;6062;47.294;12.182;2022-12-18T01:47:55;80601.00;;;-2.20
12007;BMP180;6062;47.294;12.182;2022-12-18T01:50:27;80614.00;;;-2.10
12007;BMP180;6062;47.294;12.182;2022-12-18T01:53:22;80605.00;;;-2.10
12007;BMP180;6062;47.294;12.182;2022-12-18T01:55:53;80610.00;;;-2.10
12007;BMP180;6062;47.294;12.182;2022-12-18T01:58:25;80608.00;;;-2.10
12007;BMP180;6062;47.294;12.182;2022-12-18T02:00:54;80620.00;;;-2.10
12007;BMP180;6062;47.294;12.182;2022-12-18T02:03:20;80618.00;;;-2.10
12007;BMP180;6062;47.294;12.182;2022-12-18T02:11:42;80618.00;;;-2.10
12007;BMP180;6062;47.294;12.182;2022-12-18T02:17:17;80610.00;;;-2.10
12007;BMP180;6062;47.294;12.182;2022-12-18T02:20:57;80611.00;;;-2.10
12007;BMP180;6062;47.294;12.182;2022-12-18T02:28:53;80615.00;;;-2.10
12007;BMP180;6062;47.294;12.182;2022-12-18T02:31:27;80615.00;;;-2.10
12007;BMP180;6062;47.294;12.182;2022-12-18T02:33:59;80619.00;;;-2.10
12007;BMP180;6062;47.294;12.182;2022-12-18T02:36:27;80622.00;;;-2.10
12007;BMP180;6062;47.294;12.182;2022-12-18T02:38:55;80617.00;;;-2.10
12007;BMP180;6062;47.294;12.182;2022-12-18T02:41:23;80621.00;;;-2.10
12007;BMP180;6062;47.294;12.182;2022-12-18T02:43:57;80623.00;;;-2.00
12007;BMP180;6062;47.294;12.182;2022-12-18T02:46:43;80623.00;;;-2.00
12007;BMP180;6062;47.294;12.182;2022-12-18T02:49:43;80633.00;;;-1.90
12007;BMP180;6062;47.294;12.182;2022-12-18T02:52:49;80622.00;;;-1.90
12007;BMP180;6062;47.294;12.182;2022-12-18T02:58:50;80633.00;;;-1.90
12007;BMP180;6062;47.294;12.182;2022-12-18T03:03:55;80628.00;;;-1.90
12007;BMP180;6062;47.294;12.182;2022-12-18T03:06:32;80638.00;;;-1.90
12007;BMP180;6062;47.294;12.182;2022-12-18T03:09:09;80631.00;;;-2.00
12007;BMP180;6062;47.294;12.182;2022-12-18T03:11:41;80638.00;;;-2.10
12007;BMP180;6062;47.294;12.182;2022-12-18T03:14:30;80627.00;;;-2.10
12007;BMP180;6062;47.294;12.182;2022-12-18T03:17:02;80639.00;;;-2.10
12007;BMP180;6062;47.294;12.182;2022-12-18T03:19:33;80638.00;;;-2.10
12007;BMP180;6062;47.294;12.182;2022-12-18T03:22:03;80648.00;;;-2.20
12007;BMP180;6062;47.294;12.182;2022-12-18T03:24:31;80647.00;;;-2.20
12007;BMP180;6062;47.294;12.182;2022-12-18T03:27:03;80649.00;;;-2.20
12007;BMP180;6062;47.294;12.182;2022-12-18T03:29:38;80649.00;;;-2.20
12007;BMP180;6062;47.294;12.182;2022-12-18T03:32:17;80649.00;;;-2.20
12007;BMP180;6062;47.294;12.182;2022-12-18T03:34:50;80650.00;;;-2.20
12007;BMP180;6062;47.294;12.182;2022-12-18T03:37:17;80656.00;;;-2.20
12007;BMP180;6062;47.294;12.182;2022-12-18T03:39:43;80655.00;;;-2.20
12007;BMP180;6062;47.294;12.182;2022-12-18T03:45:28;80660.00;;;-2.20
12007;BMP180;6062;47.294;12.182;2022-12-18T03:48:19;80666.00;;;-2.20
12007;BMP180;6062;47.294;12.182;2022-12-18T03:51:09;80656.00;;;-2.20
12007;BMP180;6062;47.294;12.182;2022-12-18T03:53:52;80655.00;;;-2.20
12007;BMP180;6062;47.294;12.182;2022-12-18T03:56:22;80666.00;;;-2.20
12007;BMP180;6062;47.294;12.182;2022-12-18T03:58:50;80661.00;;;-2.20
12007;BMP180;6062;47.294;12.182;2022-12-18T04:01:20;80663.00;;;-2.20
12007;BMP180;6062;47.294;12.182;2022-12-18T04:03:50;80665.00;;;-2.10
12007;BMP180;6062;47.294;12.182;2022-12-18T04:06:17;80670.00;;;-2.10
12007;BMP180;6062;47.294;12.182;2022-12-18T04:08:44;80670.00;;;-2.10
12007;BMP180;6062;47.294;12.182;2022-12-18T04:11:10;80670.00;;;-2.00
12007;BMP180;6062;47.294;12.182;2022-12-18T04:13:37;80670.00;;;-2.00
12007;BMP180;6062;47.294;12.182;2022-12-18T04:16:03;80676.00;;;-1.90
12007;BMP180;6062;47.294;12.182;2022-12-18T04:18:30;80683.00;;;-1.80
12007;BMP180;6062;47.294;12.182;2022-12-18T04:20:55;80686.00;;;-1.80
12007;BMP180;6062;47.294;12.182;2022-12-18T04:23:21;80681.00;;;-1.80
12007;BMP180;6062;47.294;12.182;2022-12-18T04:25:48;80683.00;;;-1.80
12007;BMP180;6062;47.294;12.182;2022-12-18T04:28:14;80682.00;;;-1.70
12007;BMP180;6062;47.294;12.182;2022-12-18T04:30:39;80674.00;;;-1.70
12007;BMP180;6062;47.294;12.182;2022-12-18T04:33:11;80691.00;;;-1.70
12007;BMP180;6062;47.294;12.182;2022-12-18T04:35:37;80694.00;;;-1.60
12007;BMP180;6062;47.294;12.182;2022-12-18T04:38:03;80681.00;;;-1.60
12007;BMP180;6062;47.294;12.182;2022-12-18T04:40:28;80693.00;;;-1.60
12007;BMP180;6062;47.294;12.182;2022-12-18T04:42:54;80682.00;;;-1.50
12007;BMP180;6062;47.294;12.182;2022-12-18T04:45:19;80687.00;;;-1.40
12007;BMP180;6062;47.294;12.182;2022-12-18T04:47:45;80681.00;;;-1.40
12007;BMP180;6062;47.294;12.182;2022-12-18T04:50:11;80692.00;;;-1.30
12007;BMP180;6062;47.294;12.182;2022-12-18T04:52:36;80683.00;;;-1.30
12007;BMP180;6062;47.294;12.182;2022-12-18T04:55:02;80688.00;;;-1.30
12007;BMP180;6062;47.294;12.182;2022-12-18T04:57:28;80688.00;;;-1.30
12007;BMP180;6062;47.294;12.182;2022-12-18T04:59:54;80686.00;;;-1.20
12007;BMP180;6062;47.294;12.182;2022-12-18T05:02:19;80690.00;;;-1.20
12007;BMP180;6062;47.294;12.182;2022-12-18T05:04:45;80700.00;;;-1.20
12007;BMP180;6062;47.294;12.182;2022-12-18T05:07:11;80701.00;;;-1.20
12007;BMP180;6062;47.294;12.182;2022-12-18T05:09:36;80698.00;;;-1.10
12007;BMP180;6062;47.294;12.182;2022-12-18T05:12:02;80698.00;;;-1.10
12007;BMP180;6062;47.294;12.182;2022-12-18T05:14:28;80696.00;;;-1.10
12007;BMP180;6062;47.294;12.182;2022-12-18T05:16:54;80694.00;;;-1.10
12007;BMP180;6062;47.294;12.182;2022-12-18T05:19:20;80697.00;;;-1.10
12007;BMP180;6062;47.294;12.182;2022-12-18T05:21:46;80698.00;;;-1.10
12007;BMP180;6062;47.294;12.182;2022-12-18T05:24:12;80715.00;;;-1.10
12007;BMP180;6062;47.294;12.182;2022-12-18T05:26:38;80718.00;;;-1.10
12007;BMP180;6062;47.294;12.182;2022-12-18T05:29:03;80705.00;;;-1.10
12007;BMP180;6062;47.294;12.182;2022-12-18T05:31:29;80722.00;;;-1.10
12007;BMP180;6062;47.294;12.182;2022-12-18T05:33:55;80714.00;;;-1.20
12007;BMP180;6062;47.294;12.182;2022-12-18T05:36:21;80713.00;;;-1.20
12007;BMP180;6062;47.294;12.182;2022-12-18T05:38:46;80729.00;;;-1.30
12007;BMP180;6062;47.294;12.182;2022-12-18T05:41:12;80729.00;;;-1.30
12007;BMP180;6062;47.294;12.182;2022-12-18T05:43:39;80719.00;;;-1.40
12007;BMP180;6062;47.294;12.182;2022-12-18T05:46:08;80731.00;;;-1.40
12007;BMP180;6062;47.294;12.182;2022-12-18T05:48:36;80733.00;;;-1.40
12007;BMP180;6062;47.294;12.182;2022-12-18T05:51:13;80737.00;;;-1.50
12007;BMP180;6062;47.294;12.182;2022-12-18T05:53:40;80743.00;;;-1.60
12007;BMP180;6062;47.294;12.182;2022-12-18T05:56:11;80738.00;;;-1.60
12007;BMP180;6062;47.294;12.182;2022-12-18T05:58:37;80755.00;;;-1.70
12007;BMP180;6062;47.294;12.182;2022-12-18T06:01:13;80761.00;;;-1.70
12007;BMP180;6062;47.294;12.182;2022-12-18T06:03:39;80749.00;;;-1.80
12007;BMP180;6062;47.294;12.182;2022-12-18T06:08:39;80765.00;;;-1.80
12007;BMP180;6062;47.294;12.182;2022-12-18T06:11:05;80759.00;;;-1.80
12007;BMP180;6062;47.294;12.182;2022-12-18T06:13:30;80768.00;;;-1.90
12007;BMP180;6062;47.294;12.182;2022-12-18T06:15:56;80771.00;;;-1.90
12007;BMP180;6062;47.294;12.182;2022-12-18T06:18:22;80776.00;;;-1.90
12007;BMP180;6062;47.294;12.182;2022-12-18T06:20:55;80773.00;;;-1.90
12007;BMP180;6062;47.294;12.182;2022-12-18T06:23:22;80767.00;;;-1.90
12007;BMP180;6062;47.294;12.182;2022-12-18T06:25:47;80778.00;;;-1.80
12007;BMP180;6062;47.294;12.182;2022-12-18T06:28:13;80771.00;;;-1.80
12007;BMP180;6062;47.294;12.182;2022-12-18T06:30:39;80781.00;;;-1.80
12007;BMP180;6062;47.294;12.182;2022-12-18T06:33:04;80782.00;;;-1.70
12007;BMP180;6062;47.294;12.182;2022-12-18T06:35:31;80780.00;;;-1.70
12007;BMP180;6062;47.294;12.182;2022-12-18T06:37:57;80782.00;;;-1.70
12007;BMP180;6062;47.294;12.182;2022-12-18T06:40:23;80775.00;;;-1.70
12007;BMP180;6062;47.294;12.182;2022-12-18T06:42:48;80769.00;;;-1.70
12007;BMP180;6062;47.294;12.182;2022-12-18T06:45:14;80779.00;;;-1.70
12007;BMP180;6062;47.294;12.182;2022-12-18T06:47:40;80783.00;;;-1.70
12007;BMP180;6062;47.294;12.182;2022-12-18T06:50:06;80787.00;;;-1.70
12007;BMP180;6062;47.294;12.182;2022-12-18T06:52:33;80787.00;;;-1.60
12007;BMP180;6062;47.294;12.182;2022-12-18T06:55:00;80790.00;;;-1.60
12007;BMP180;6062;47.294;12.182;2022-12-18T06:57:25;80785.00;;;-1.60
12007;BMP180;6062;47.294;12.182;2022-12-18T06:59:51;80786.00;;;-1.60
12007;BMP180;6062;47.294;12.182;2022-12-18T07:02:17;80789.00;;;-1.50
12007;BMP180;6062;47.294;12.182;2022-12-18T07:04:42;80786.00;;;-1.50
12007;BMP180;6062;47.294;12.182;2022-12-18T07:07:08;80792.00;;;-1.50
12007;BMP180;6062;47.294;12.182;2022-12-18T07:09:34;80790.00;;;-1.40
12007;BMP180;6062;47.294;12.182;2022-12-18T07:12:00;80796.00;;;-1.40
12007;BMP180;6062;47.294;12.182;2022-12-18T07:14:25;80802.00;;;-1.40
12007;BMP180;6062;47.294;12.182;2022-12-18T07:16:51;80798.00;;;-1.40
12007;BMP180;6062;47.294;12.182;2022-12-18T07:19:16;80803.00;;;-1.30
12007;BMP180;6062;47.294;12.182;2022-12-18T07:21:42;80811.00;;;-1.30
12007;BMP180;6062;47.294;12.182;2022-12-18T07:24:08;80815.00;;;-1.20
12007;BMP180;6062;47.294;12.182;2022-12-18T07:26:33;80813.00;;;-1.20
12007;BMP180;6062;47.294;12.182;2022-12-18T07:28:59;80809.00;;;-1.20
12007;BMP180;6062;47.294;12.182;2022-12-18T07:31:26;80823.00;;;-1.10
12007;BMP180;6062;47.294;12.182;2022-12-18T07:33:52;80827.00;;;-1.10
12007;BMP180;6062;47.294;12.182;2022-12-18T07:36:19;80838.00;;;-1.00
12007;BMP180;6062;47.294;12.182;2022-12-18T07:38:49;80840.00;;;-0.90
12007;BMP180;6062;47.294;12.182;2022-12-18T07:41:16;80837.00;;;-0.90
12007;BMP180;6062;47.294;12.182;2022-12-18T07:43:42;80844.00;;;-0.80
12007;BMP180;6062;47.294;12.182;2022-12-18T07:46:09;80837.00;;;-0.80
12007;BMP180;6062;47.294;12.182;2022-12-18T07:48:35;80849.00;;;-0.70
12007;BMP180;6062;47.294;12.182;2022-12-18T07:51:06;80851.00;;;-0.70
12007;BMP180;6062;47.294;12.182;2022-12-18T07:53:34;80859.00;;;-0.60
12007;BMP180;6062;47.294;12.182;2022-12-18T07:56:07;80855.00;;;-0.50
12007;BMP180;6062;47.294;12.182;2022-12-18T07:58:35;80849.00;;;-0.50
12007;BMP180;6062;47.294;12.182;2022-12-18T08:01:05;80864.00;;;-0.40
12007;BMP180;6062;47.294;12.182;2022-12-18T08:03:32;80870.00;;;-0.30
12007;BMP180;6062;47.294;12.182;2022-12-18T08:06:06;80866.00;;;-0.10
12007;BMP180;6062;47.294;12.182;2022-12-18T08:08:34;80867.00;;;0.20
12007;BMP180;6062;47.294;12.182;2022-12-18T08:11:00;80859.00;;;0.90
12007;BMP180;6062;47.294;12.182;2022-12-18T08:13:26;80855.00;;;1.90
12007;BMP180;6062;47.294;12.182;2022-12-18T08:16:02;80868.00;;;3.50
12007;BMP180;6062;47.294;12.182;2022-12-18T08:18:29;80867.00;;;5.10
12007;BMP180;6062;47.294;12.182;2022-12-18T08:20:55;80874.00;;;6.60
12007;BMP180;6062;47.294;12.182;2022-12-18T08:23:21;80867.00;;;8.20
12007;BMP180;6062;47.294;12.182;2022-12-18T08:25:47;80874.00;;;9.60
12007;BMP180;6062;47.294;12.182;2022-12-18T08:28:13;80882.00;;;10.90
12007;BMP180;6062;47.294;12.182;2022-12-18T08:30:41;80886.00;;;12.10
12007;BMP180;6062;47.294;12.182;2022-12-18T08:33:07;80884.00;;;13.10
12007;BMP180;6062;47.294;12.182;2022-12-18T08:35:36;80888.00;;;14.00
12007;BMP180;6062;47.294;12.182;2022-12-18T08:38:03;80890.00;;;14.90
12007;BMP180;6062;47.294;12.182;2022-12-18T08:40:29;80894.00;;;15.60
12007;BMP180;6062;47.294;12.182;2022-12-18T08:42:54;80893.00;;;16.40
12007;BMP180;6062;47.294;12.182;2022-12-18T08:45:39;80888.00;;;17.10
12007;BMP180;6062;47.294;12.182;2022-12-18T08:48:05;80894.00;;;17.70
12007;BMP180;6062;47.294;12.182;2022-12-18T08:50:30;80899.00;;;18.20
12007;BMP180;6062;47.294;12.182;2022-12-18T08:52:56;80908.00;;;18.70
12007;BMP180;6062;47.294;12.182;2022-12-18T08:55:21;80903.00;;;19.10
12007;BMP180;6062;47.294;12.182;2022-12-18T08:57:50;80917.00;;;19.60
12007;BMP180;6062;47.294;12.182;2022-12-18T09:00:16;80913.00;;;19.90
12007;BMP180;6062;47.294;12.182;2022-12-18T09:02:42;80920.00;;;20.30
12007;BMP180;6062;47.294;12.182;2022-12-18T09:05:08;80917.00;;;20.60
12007;BMP180;6062;47.294;12.182;2022-12-18T09:07:34;80920.00;;;20.90
12007;BMP180;6062;47.294;12.182;2022-12-18T09:10:00;80932.00;;;21.20
12007;BMP180;6062;47.294;12.182;2022-12-18T09:12:25;80928.00;;;21.50
12007;BMP180;6062;47.294;12.182;2022-12-18T09:14:51;80932.00;;;21.90
12007;BMP180;6062;47.294;12.182;2022-12-18T09:17:17;80937.00;;;22.10
12007;BMP180;6062;47.294;12.182;2022-12-18T09:19:42;80940.00;;;22.50
12007;BMP180;6062;47.294;12.182;2022-12-18T09:22:08;80938.00;;;22.80
12007;BMP180;6062;47.294;12.182;2022-12-18T09:24:35;80939.00;;;23.10
12007;BMP180;6062;47.294;12.182;2022-12-18T09:27:01;80946.00;;;23.40
12007;BMP180;6062;47.294;12.182;2022-12-18T09:29:26;80949.00;;;23.60
12007;BMP180;6062;47.294;12.182;2022-12-18T09:31:52;80947.00;;;23.80
12007;BMP180;6062;47.294;12.182;2022-12-18T09:34:18;80947.00;;;24.00
12007;BMP180;6062;47.294;12.182;2022-12-18T09:36:46;80950.00;;;24.30
12007;BMP180;6062;47.294;12.182;2022-12-18T09:39:12;80947.00;;;24.50
12007;BMP180;6062;47.294;12.182;2022-12-18T09:41:57;80956.00;;;24.70
12007;BMP180;6062;47.294;12.182;2022-12-18T09:44:32;80947.00;;;24.90
12007;BMP180;6062;47.294;12.182;2022-12-18T09:47:28;80953.00;;;25.20
12007;BMP180;6062;47.294;12.182;2022-12-18T09:50:05;80949.00;;;25.30
12007;BMP180;6062;47.294;12.182;2022-12-18T09:52:43;80946.00;;;25.40
12007;BMP180;6062;47.294;12.182;2022-12-18T09:55:33;80947.00;;;25.60
12007;BMP180;6062;47.294;12.182;2022-12-18T09:58:29;80946.00;;;25.70
12007;BMP180;6062;47.294;12.182;2022-12-18T10:00:56;80941.00;;;25.70
12007;BMP180;6062;47.294;12.182;2022-12-18T10:03:22;80938.00;;;25.80
12007;BMP180;6062;47.294;12.182;2022-12-18T10:06:20;80942.00;;;25.90
12007;BMP180;6062;47.294;12.182;2022-12-18T10:09:27;80948.00;;;26.10
12007;BMP180;6062;47.294;12.182;2022-12-18T10:12:22;80950.00;;;26.10
12007;BMP180;6062;47.294;12.182;2022-12-18T10:15:26;80944.00;;;26.20
12007;BMP180;6062;47.294;12.182;2022-12-18T10:20:56;80945.00;;;26.50
12007;BMP180;6062;47.294;12.182;2022-12-18T10:26:12;80942.00;;;26.50
12007;BMP180;6062;47.294;12.182;2022-12-18T10:28:40;80946.00;;;26.60
12007;BMP180;6062;47.294;12.182;2022-12-18T10:31:27;80951.00;;;26.50
12007;BMP180;6062;47.294;12.182;2022-12-18T10:33:55;80943.00;;;26.60
12007;BMP180;6062;47.294;12.182;2022-12-18T10:36:23;80951.00;;;26.60
12007;BMP180;6062;47.294;12.182;2022-12-18T10:38:49;80946.00;;;26.70
12007;BMP180;6062;47.294;12.182;2022-12-18T10:43:44;80939.00;;;26.80
12007;BMP180;6062;47.294;12.182;2022-12-18T10:51:32;80941.00;;;27.00
12007;BMP180;6062;47.294;12.182;2022-12-18T10:54:15;80944.00;;;26.90
12007;BMP180;6062;47.294;12.182;2022-12-18T10:56:41;80944.00;;;26.90
12007;BMP180;6062;47.294;12.182;2022-12-18T10:59:11;80940.00;;;26.90
12007;BMP180;6062;47.294;12.182;2022-12-18T11:01:55;80949.00;;;26.90
12007;BMP180;6062;47.294;12.182;2022-12-18T11:04:29;80946.00;;;26.90
12007;BMP180;6062;47.294;12.182;2022-12-18T11:07:07;80951.00;;;26.90
12007;BMP180;6062;47.294;12.182;2022-12-18T11:09:38;80954.00;;;26.90
12007;BMP180;6062;47.294;12.182;2022-12-18T11:12:21;80953.00;;;27.00
12007;BMP180;6062;47.294;12.182;2022-12-18T11:14:50;80951.00;;;26.90
12007;BMP180;6062;47.294;12.182;2022-12-18T11:17:37;80957.00;;;26.90
12007;BMP180;6062;47.294;12.182;2022-12-18T11:20:31;80950.00;;;26.80
12007;BMP180;6062;47.294;12.182;2022-12-18T11:23:05;80955.00;;;26.80
12007;BMP180;6062;47.294;12.182;2022-12-18T11:25:33;80959.00;;;26.70
12007;BMP180;6062;47.294;12.182;2022-12-18T11:31:27;80957.00;;;26.60
12007;BMP180;6062;47.294;12.182;2022-12-18T11:34:08;80953.00;;;26.50
12007;BMP180;6062;47.294;12.182;2022-12-18T11:36:44;80953.00;;;26.40
12007;BMP180;6062;47.294;12.182;2022-12-18T11:39:31;80958.00;;;26.30
12007;BMP180;6062;47.294;12.182;2022-12-18T11:44:59;80960.00;;;26.10
12007;BMP180;6062;47.294;12.182;2022-12-18T11:47:58;80952.00;;;26.00
12007;BMP180;6062;47.294;12.182;2022-12-18T11:50:51;80950.00;;;25.90
12007;BMP180;6062;47.294;12.182;2022-12-18T11:53:18;80956.00;;;25.80
12007;BMP180;6062;47.294;12.182;2022-12-18T11:56:05;80958.00;;;25.70
12007;BMP180;6062;47.294;12.182;2022-12-18T11:58:50;80952.00;;;25.60
12007;BMP180;6062;47.294;12.182;2022-12-18T12:01:55;80950.00;;;25.60
12007;BMP180;6062;47.294;12.182;2022-12-18T12:18:40;80953.00;;;25.10
12007;BMP180;6062;47.294;12.182;2022-12-18T12:29:55;80963.00;;;24.00
12007;BMP180;6062;47.294;12.182;2022-12-18T12:32:45;80966.00;;;23.60
12007;BMP180;6062;47.294;12.182;2022-12-18T12:36:07;80963.00;;;23.20
12007;BMP180;6062;47.294;12.182;2022-12-18T12:38:43;80967.00;;;22.80
12007;BMP180;6062;47.294;12.182;2022-12-18T12:41:21;80961.00;;;22.30
12007;BMP180;6062;47.294;12.182;2022-12-18T12:44:16;80960.00;;;21.60
12007;BMP180;6062;47.294;12.182;2022-12-18T12:46:43;80959.00;;;21.00
12007;BMP180;6062;47.294;12.182;2022-12-18T12:49:18;80965.00;;;20.40
12007;BMP180;6062;47.294;12.182;2022-12-18T12:52:00;80957.00;;;19.60
12007;BMP180;6062;47.294;12.182;2022-12-18T12:54:32;80952.00;;;18.90
12007;BMP180;6062;47.294;12.182;2022-12-18T12:57:20;80958.00;;;18.10
12007;BMP180;6062;47.294;12.182;2022-12-18T13:00:02;80950.00;;;17.30
12007;BMP180;6062;47.294;12.182;2022-12-18T13:02:51;80949.00;;;16.50
12007;BMP180;6062;47.294;12.182;2022-12-18T13:05:31;80939.00;;;15.80
12007;BMP180;6062;47.294;12.182;2022-12-18T13:08:10;80940.00;;;15.10
12007;BMP180;6062;47.294;12.182;2022-12-18T13:10:39;80929.00;;;14.40
12007;BMP180;6062;47.294;12.182;2022-12-18T13:13:14;80929.00;;;13.70
12007;BMP180;6062;47.294;12.182;2022-12-18T13:16:10;80931.00;;;12.90
12007;BMP180;6062;47.294;12.182;2022-12-18T13:18:36;80924.00;;;12.40
12007;BMP180;6062;47.294;12.182;2022-12-18T13:21:28;80930.00;;;11.70
12007;BMP180;6062;47.294;12.182;2022-12-18T13:23:55;80929.00;;;11.20
12007;BMP180;6062;47.294;12.182;2022-12-18T13:28:54;80935.00;;;10.30
12007;BMP180;6062;47.294;12.182;2022-12-18T13:34:24;80936.00;;;9.40
12007;BMP180;6062;47.294;12.182;2022-12-18T13:36:51;80941.00;;;9.10
12007;BMP180;6062;47.294;12.182;2022-12-18T13:39:21;80938.00;;;8.80
12007;BMP180;6062;47.294;12.182;2022-12-18T13:44:55;80950.00;;;8.20
12007;BMP180;6062;47.294;12.182;2022-12-18T13:47:34;80958.00;;;7.90
12007;BMP180;6062;47.294;12.182;2022-12-18T13:50:25;80947.00;;;7.60
12007;BMP180;6062;47.294;12.182;2022-12-18T13:52:52;80956.00;;;7.40
12007;BMP180;6062;47.294;12.182;2022-12-18T13:55:19;80954.00;;;7.20
12007;BMP180;6062;47.294;12.182;2022-12-18T13:57:46;80952.00;;;7.00
12007;BMP180;6062;47.294;12.182;2022-12-18T14:00:29;80948.00;;;6.80
12007;BMP180;6062;47.294;12.182;2022-12-18T14:02:57;80952.00;;;6.60
12007;BMP180;6062;47.294;12.182;2022-12-18T14:05:31;80947.00;;;6.40
12007;BMP180;6062;47.294;12.182;2022-12-18T14:08:15;80955.00;;;6.30
12007;BMP180;6062;47.294;12.182;2022-12-18T14:10:48;80946.00;;;6.10
12007;BMP180;6062;47.294;12.182;2022-12-18T14:13:42;80954.00;;;5.90
12007;BMP180;6062;47.294;12.182;2022-12-18T14:16:14;80953.00;;;5.70
12007;BMP180;6062;47.294;12.182;2022-12-18T14:18:56;80962.00;;;5.50
12007;BMP180;6062;47.294;12.182;2022-12-18T14:21:27;80970.00;;;5.30
12007;BMP180;6062;47.294;12.182;2022-12-18T14:24:19;80965.00;;;5.10
12007;BMP180;6062;47.294;12.182;2022-12-18T14:26:49;80970.00;;;5.00
12007;BMP180;6062;47.294;12.182;2022-12-18T14:29:29;80975.00;;;4.80
12007;BMP180;6062;47.294;12.182;2022-12-18T14:32:17;80968.00;;;4.60
12007;BMP180;6062;47.294;12.182;2022-12-18T14:34:49;80966.00;;;4.50
12007;BMP180;6062;47.294;12.182;2022-12-18T14:37:21;80971.00;;;4.40
12007;BMP180;6062;47.294;12.182;2022-12-18T14:40:17;80970.00;;;4.20
12007;BMP180;6062;47.294;12.182;2022-12-18T14:42:43;80969.00;;;4.10
12007;BMP180;6062;47.294;12.182;2022-12-18T14:45:38;80966.00;;;4.00
12007;BMP180;6062;47.294;12.182;2022-12-18T14:50:37;80967.00;;;3.80
12007;BMP180;6062;47.294;12.182;2022-12-18T14:53:04;80975.00;;;3.80
12007;BMP180;6062;47.294;12.182;2022-12-18T14:55:29;80977.00;;;3.70
12007;BMP180;6062;47.294;12.182;2022-12-18T14:57:56;80972.00;;;3.70
12007;BMP180;6062;47.294;12.182;2022-12-18T15:00:24;80980.00;;;3.60
12007;BMP180;6062;47.294;12.182;2022-12-18T15:02:54;80972.00;;;3.50
12007;BMP180;6062;47.294;12.182;2022-12-18T15:05:29;80970.00;;;3.40
12007;BMP180;6062;47.294;12.182;2022-12-18T15:08:00;80965.00;;;3.30
12007;BMP180;6062;47.294;12.182;2022-12-18T15:10:32;80972.00;;;3.20
12007;BMP180;6062;47.294;12.182;2022-12-18T15:20:56;80961.00;;;2.90
12007;BMP180;6062;47.294;12.182;2022-12-18T15:23:47;80969.00;;;2.90
12007;BMP180;6062;47.294;12.182;2022-12-18T15:26:16;80970.00;;;2.80
12007;BMP180;6062;47.294;12.182;2022-12-18T15:28:54;80976.00;;;2.80
12007;BMP180;6062;47.294;12.182;2022-12-18T15:31:33;80967.00;;;2.80
12007;BMP180;6062;47.294;12.182;2022-12-18T15:34:20;80976.00;;;2.80
12007;BMP180;6062;47.294;12.182;2022-12-18T15:36:46;80977.00;;;2.70
12007;BMP180;6062;47.294;12.182;2022-12-18T15:39:12;80966.00;;;2.60
12007;BMP180;6062;47.294;12.182;2022-12-18T15:41:39;80975.00;;;2.60
12007;BMP180;6062;47.294;12.182;2022-12-18T15:44:37;80977.00;;;2.50
12007;BMP180;6062;47.294;12.182;2022-12-18T15:47:03;80969.00;;;2.50
12007;BMP180;6062;47.294;12.182;2022-12-18T15:49:28;80982.00;;;2.50
12007;BMP180;6062;47.294;12.182;2022-12-18T15:51:58;80989.00;;;2.40
12007;BMP180;6062;47.294;12.182;2022-12-18T15:54:25;80987.00;;;2.40
12007;BMP180;6062;47.294;12.182;2022-12-18T15:57:12;80986.00;;;2.30
12007;BMP180;6062;47.294;12.182;2022-12-18T15:59:55;80987.00;;;2.30
12007;BMP180;6062;47.294;12.182;2022-12-18T16:02:25;80979.00;;;2.20
12007;BMP180;6062;47.294;12.182;2022-12-18T16:04:52;80978.00;;;2.20
12007;BMP180;6062;47.294;12.182;2022-12-18T16:07:18;80980.00;;;2.20